الصفحة الرئيسية
METAR-TAF:

METAR-TAF

مطار :

سولت ليك سيتي, يوتا, الولايات المتحدة

مطار سولت لايك سيتي الدولي

دائرة عرض: 40-46-41N, خط طول: 111-58-10W, ارتفاع: 1288 متر

مراقبة الطقس الحالي

تاريخ ووقت الإصدار 33 دقيقة قبل الساعة 10:54UTC
ريح 3 عقدة من الشمال الشرقي
درجة الحرارة 0°درجة مئوية
الرطوبة 86%
ضغط 1026 hPa
الرؤية: 16.1 كم
غيوم قليلة على ارتفاع 20000 قدم

METAR: KSLC 161054Z 05003KT 10SM FEW200 00/M02 A3031 RMK AO2 SLP266 T00001022

زمن: 04:27 (11:27 UTC)

توقعات

تاريخ ووقت الإصدار 2ساعات و 44 دقيقة قبل الساعة 08:43UTC
التوقعات صالحة من16 الساعة 09 UTC إلى 17 الساعة 12 UTC
ريح 4 عقدة من الشرق/الجنوب الشرقي
الرؤية: 10 كم
غيوم قليلة على ارتفاع 20000 قدم
من 16 الساعة 1900 UTC
ريح 5 عقدة من الشمال/الشمال الغربي
الرؤية: 10 كم
غيوم متفرقة على ارتفاع 10000 قدم
غيوم مفككة على ارتفاع 20000 قدم
من 17 الساعة 0400 UTC
ريح 5 عقدة من الجنوب/الجنوب الشرقي
الرؤية: 10 كم
غيوم مفككة على ارتفاع 10000 قدم
غيوم مفككة على ارتفاع 20000 قدم

TAF: KSLC 160843Z 1609/1712 12004KT P6SM FEW200 FM161900 33005KT P6SM SCT100 BKN200 FM170400 15005KT P6SM BKN100 BKN200

أرصاد الطقس والتوقعات من أكثر من 4000 مطار (تقارير الطقس للمطار METAR والتنبؤ بالطقس بالمطارTAF).

المحطات المتاحة هي النقط الصفراء والحمراء على الخريطة.

حرك المؤشر فوق النقطة لمعرفة اسم المحطة.

ثم انقر لمعرفة أرصاد وتوقعات الطقس.

لتغيير الخارطة: اضغط على الأزرار الخضراء مع رمز الصليب الأسود للتكبير. على الزر الأخضر مع شرطة للتصغير، أو على الأسهم الخضراء للخرائط المجاورة.


METAR-TAF: